createdAt,value
2018-06-11T00:03:42.142Z,17.80
2018-06-11T00:06:14.143Z,17.80
2018-06-11T00:08:46.555Z,17.70
2018-06-11T00:11:18.746Z,17.70
2018-06-11T00:13:50.772Z,17.60
2018-06-11T00:16:22.884Z,17.50
2018-06-11T00:18:54.662Z,17.40
2018-06-11T00:21:26.857Z,17.30
2018-06-11T00:23:58.865Z,17.30
2018-06-11T00:26:30.980Z,17.20
2018-06-11T00:31:34.404Z,17.10
2018-06-11T00:34:06.432Z,17.10
2018-06-11T00:36:39.651Z,17.00
2018-06-11T00:39:12.905Z,17.00
2018-06-11T00:41:45.227Z,17.00
2018-06-11T00:46:48.525Z,16.90
2018-06-11T00:49:20.379Z,16.90
2018-06-11T00:51:52.288Z,16.80
2018-06-11T00:54:24.196Z,16.80
2018-06-11T00:56:56.524Z,16.80
2018-06-11T01:03:03.189Z,16.80
2018-06-11T01:05:35.084Z,16.70
2018-06-11T01:08:07.231Z,16.70
2018-06-11T01:10:39.710Z,16.60
2018-06-11T01:13:11.963Z,16.60
2018-06-11T01:18:15.554Z,16.50
2018-06-11T01:20:47.769Z,16.50
2018-06-11T01:23:19.851Z,16.40
2018-06-11T01:25:51.839Z,16.50
2018-06-11T01:28:23.863Z,16.60
2018-06-11T01:30:56.093Z,16.60
2018-06-11T01:35:59.885Z,16.50
2018-06-11T01:38:32.102Z,16.50
2018-06-11T01:43:51.407Z,16.30
2018-06-11T01:52:31.937Z,16.20
2018-06-11T01:55:04.029Z,16.10
2018-06-11T01:57:36.094Z,16.10
2018-06-11T02:00:08.306Z,16.10
2018-06-11T02:02:40.818Z,16.20
2018-06-11T02:05:15.080Z,16.30
2018-06-11T02:07:47.170Z,16.30
2018-06-11T02:11:20.461Z,16.40
2018-06-11T02:13:53.050Z,16.40
2018-06-11T02:18:57.372Z,16.40
2018-06-11T02:21:29.636Z,16.50
2018-06-11T02:24:01.650Z,16.40
2018-06-11T02:26:33.700Z,16.50
2018-06-11T02:29:05.830Z,16.40
2018-06-11T02:31:38.622Z,16.40
2018-06-11T02:39:14.230Z,16.20
2018-06-11T02:41:46.265Z,16.20
2018-06-11T02:44:18.648Z,16.10
2018-06-11T02:46:50.685Z,16.10
2018-06-11T02:49:22.761Z,16.10
2018-06-11T02:51:55.345Z,16.10
2018-06-11T02:54:27.702Z,16.00
2018-06-11T02:56:59.855Z,15.90
2018-06-11T02:59:31.811Z,15.90
2018-06-11T03:02:04.610Z,15.80
2018-06-11T03:04:36.949Z,15.80
2018-06-11T03:07:08.865Z,15.80
2018-06-11T03:09:41.433Z,15.80
2018-06-11T03:12:13.205Z,15.80
2018-06-11T03:14:45.096Z,15.90
2018-06-11T03:17:17.528Z,15.80
2018-06-11T03:19:49.892Z,15.80
2018-06-11T03:22:21.660Z,15.90
2018-06-11T03:24:53.347Z,15.90
2018-06-11T03:27:25.218Z,15.90
2018-06-11T03:32:28.133Z,15.80
2018-06-11T03:35:00.081Z,15.80
2018-06-11T03:37:32.104Z,15.80
2018-06-11T03:40:04.107Z,15.80
2018-06-11T03:42:36.088Z,15.90
2018-06-11T03:45:08.394Z,16.00
2018-06-11T03:47:40.819Z,16.20
2018-06-11T03:52:46.442Z,16.20
2018-06-11T03:55:18.646Z,16.30
2018-06-11T03:57:51.825Z,16.30
2018-06-11T04:00:23.850Z,16.40
2018-06-11T04:02:55.915Z,16.40
2018-06-11T04:05:27.825Z,16.40
2018-06-11T04:08:00.116Z,16.50
2018-06-11T04:10:32.179Z,16.50
2018-06-11T04:13:04.304Z,16.60
2018-06-11T04:15:36.235Z,16.80
2018-06-11T04:18:08.282Z,16.80
2018-06-11T04:20:41.061Z,16.90
2018-06-11T04:25:44.461Z,16.90
2018-06-11T04:28:16.574Z,17.00
2018-06-11T04:30:48.475Z,17.10
2018-06-11T04:35:51.775Z,17.50
2018-06-11T04:38:33.904Z,17.70
2018-06-11T04:41:10.917Z,17.90
2018-06-11T04:46:14.242Z,18.40
2018-06-11T04:48:46.188Z,18.60
2018-06-11T04:51:19.008Z,18.70
2018-06-11T04:53:50.979Z,19.10
2018-06-11T04:56:22.984Z,19.30
2018-06-11T05:01:26.386Z,19.80
2018-06-11T05:06:29.625Z,20.20
2018-06-11T05:09:01.507Z,20.30
2018-06-11T05:11:33.794Z,20.40
2018-06-11T05:14:05.805Z,20.50
2018-06-11T05:19:09.496Z,20.80
2018-06-11T05:21:41.748Z,21.00
2018-06-11T05:24:13.632Z,21.10
2018-06-11T05:26:52.459Z,21.20
2018-06-11T05:29:24.679Z,21.10
2018-06-11T05:31:56.601Z,20.90
2018-06-11T05:34:33.032Z,20.70
2018-06-11T05:39:38.236Z,21.20
2018-06-11T05:42:10.177Z,21.50
2018-06-11T05:44:42.447Z,21.80
2018-06-11T05:47:14.450Z,21.90
2018-06-11T05:52:17.769Z,21.90
2018-06-11T05:54:49.500Z,22.10
2018-06-11T05:57:21.484Z,22.30
2018-06-11T05:59:53.457Z,22.50
2018-06-11T06:02:26.158Z,22.50
2018-06-11T06:04:59.537Z,22.80
2018-06-11T06:12:35.545Z,23.90
2018-06-11T06:15:08.659Z,23.80
2018-06-11T06:17:40.924Z,23.90
2018-06-11T06:20:12.855Z,24.10
2018-06-11T06:22:45.246Z,24.40
2018-06-11T06:25:20.425Z,24.70
2018-06-11T06:30:24.083Z,25.10
2018-06-11T06:32:56.252Z,25.30
2018-06-11T06:35:44.971Z,25.60
2018-06-11T06:38:21.711Z,25.80
2018-06-11T06:40:53.774Z,26.20
2018-06-11T06:43:25.743Z,26.40
2018-06-11T06:46:03.518Z,26.60
2018-06-11T06:48:38.665Z,26.80
2018-06-11T06:51:24.130Z,26.50
2018-06-11T06:53:57.648Z,26.30
2018-06-11T06:56:29.590Z,26.50
2018-06-11T07:01:42.154Z,26.40
2018-06-11T07:04:14.043Z,26.50
2018-06-11T07:06:46.043Z,26.50
2018-06-11T07:11:48.987Z,27.20
2018-06-11T07:14:20.943Z,27.60
2018-06-11T07:16:52.894Z,27.90
2018-06-11T07:19:24.650Z,28.30
2018-06-11T07:21:56.371Z,28.20
2018-06-11T07:24:28.259Z,28.10
2018-06-11T07:29:31.304Z,28.10
2018-06-11T07:32:03.051Z,28.10
2018-06-11T07:34:34.912Z,28.50
2018-06-11T07:37:06.742Z,28.50
2018-06-11T07:39:39.112Z,28.60
2018-06-11T07:42:10.882Z,28.70
2018-06-11T07:44:42.771Z,28.90
2018-06-11T07:47:14.753Z,28.90
2018-06-11T07:49:46.651Z,28.90
2018-06-11T07:52:18.591Z,29.20
2018-06-11T07:54:50.448Z,29.30
2018-06-11T07:57:22.136Z,29.50
2018-06-11T07:59:54.842Z,29.30
2018-06-11T08:02:26.602Z,29.30
2018-06-11T08:04:58.577Z,29.70
2018-06-11T08:07:30.424Z,29.70
2018-06-11T08:10:02.172Z,29.90
2018-06-11T08:15:05.392Z,29.20
2018-06-11T08:17:37.252Z,29.30
2018-06-11T08:20:09.277Z,29.60
2018-06-11T08:22:41.398Z,30.10
2018-06-11T08:25:13.307Z,30.20
2018-06-11T08:27:44.991Z,30.60
2018-06-11T08:32:47.958Z,31.10
2018-06-11T08:35:19.780Z,31.00
2018-06-11T08:37:51.711Z,30.40
2018-06-11T08:42:55.284Z,30.60
2018-06-11T08:45:27.326Z,30.80
2018-06-11T08:47:59.071Z,31.10
2018-06-11T08:53:02.329Z,30.90
2018-06-11T08:55:34.174Z,30.70
2018-06-11T08:58:06.217Z,30.60
2018-06-11T09:00:40.345Z,30.90
2018-06-11T09:03:12.447Z,31.30
2018-06-11T09:05:45.026Z,30.60
2018-06-11T09:08:16.810Z,29.80
2018-06-11T09:10:48.606Z,30.00
2018-06-11T09:13:20.462Z,30.10
2018-06-11T09:15:52.279Z,30.20
2018-06-11T09:18:24.447Z,30.30
2018-06-11T09:20:56.260Z,30.80
2018-06-11T09:23:28.208Z,31.00
2018-06-11T09:25:59.888Z,31.20
2018-06-11T09:28:31.691Z,30.90
2018-06-11T09:33:37.167Z,31.40
2018-06-11T09:36:10.371Z,31.80
2018-06-11T09:43:44.803Z,31.80
2018-06-11T09:46:16.592Z,32.10
2018-06-11T09:48:48.330Z,32.30
2018-06-11T09:51:20.376Z,32.10
2018-06-11T09:53:52.169Z,31.90
2018-06-11T09:56:24.427Z,31.70
2018-06-11T09:59:43.258Z,31.70
2018-06-11T10:04:48.305Z,31.50
2018-06-11T10:07:20.119Z,31.30
2018-06-11T10:09:51.883Z,31.40
2018-06-11T10:19:58.655Z,31.90
2018-06-11T10:22:30.540Z,31.90
2018-06-11T10:25:02.194Z,31.90
2018-06-11T10:27:34.141Z,32.10
2018-06-11T10:30:06.594Z,32.50
2018-06-11T10:32:38.648Z,32.50
2018-06-11T10:35:10.723Z,32.40
2018-06-11T10:37:43.683Z,32.90
2018-06-11T10:54:07.993Z,32.80
2018-06-11T10:56:41.007Z,32.60
2018-06-11T10:59:12.819Z,32.70
2018-06-11T11:04:16.053Z,32.80
2018-06-11T11:06:48.038Z,32.80
2018-06-11T11:09:19.975Z,32.10
2018-06-11T11:11:51.997Z,31.50
2018-06-11T11:14:23.732Z,31.50
2018-06-11T11:16:55.925Z,31.80
2018-06-11T11:19:27.873Z,31.60
2018-06-11T11:22:00.134Z,31.50
2018-06-11T11:24:31.866Z,31.80
2018-06-11T11:27:03.783Z,31.80
2018-06-11T11:29:36.006Z,31.50
2018-06-11T11:35:49.886Z,31.30
2018-06-11T11:38:21.718Z,31.40
2018-06-11T11:40:53.813Z,31.50
2018-06-11T11:43:26.041Z,31.90
2018-06-11T11:45:58.263Z,31.50
2018-06-11T11:48:30.217Z,31.40
2018-06-11T11:51:02.314Z,31.80
2018-06-11T11:53:34.100Z,31.70
2018-06-11T11:56:05.938Z,31.60
2018-06-11T11:58:37.959Z,31.60
2018-06-11T12:01:09.825Z,32.00
2018-06-11T12:03:43.011Z,32.00
2018-06-11T12:06:15.222Z,32.00
2018-06-11T12:08:50.004Z,32.50
2018-06-11T12:11:24.316Z,32.00
2018-06-11T12:13:56.935Z,31.90
2018-06-11T12:16:30.891Z,31.90
2018-06-11T12:19:03.108Z,31.90
2018-06-11T12:21:35.016Z,31.30
2018-06-11T12:24:07.020Z,31.20
2018-06-11T12:26:38.962Z,31.20
2018-06-11T12:29:10.747Z,31.40
2018-06-11T12:31:42.986Z,31.50
2018-06-11T12:34:15.662Z,32.10
2018-06-11T12:36:47.582Z,32.70
2018-06-11T12:39:20.043Z,32.90
2018-06-11T12:41:52.108Z,32.60
2018-06-11T12:44:24.505Z,32.50
2018-06-11T12:46:56.595Z,32.60
2018-06-11T12:49:29.128Z,32.10
2018-06-11T12:52:01.722Z,32.10
2018-06-11T12:54:33.486Z,32.20
2018-06-11T12:59:37.692Z,32.00
2018-06-11T13:09:10.230Z,31.90
2018-06-11T13:12:23.261Z,31.90
2018-06-11T13:17:26.502Z,31.70
2018-06-11T13:19:59.094Z,31.90
2018-06-11T13:22:32.762Z,31.40
2018-06-11T13:30:08.218Z,30.40
2018-06-11T13:35:21.883Z,30.80
2018-06-11T13:37:54.577Z,31.40
2018-06-11T13:40:26.573Z,31.90
2018-06-11T13:42:59.381Z,32.40
2018-06-11T13:48:04.056Z,32.60
2018-06-11T13:50:36.222Z,31.50
2018-06-11T13:53:07.958Z,31.00
2018-06-11T13:55:39.905Z,30.50
2018-06-11T13:58:11.906Z,30.20
2018-06-11T14:00:43.851Z,30.20
2018-06-11T14:03:15.617Z,30.10
2018-06-11T14:05:47.780Z,30.10
2018-06-11T14:08:19.646Z,30.20
2018-06-11T14:10:51.722Z,30.50
2018-06-11T14:13:23.703Z,30.40
2018-06-11T14:15:56.603Z,30.40
2018-06-11T14:21:00.825Z,30.20
2018-06-11T14:23:32.755Z,30.30
2018-06-11T14:26:04.673Z,30.10
2018-06-11T14:28:36.822Z,29.70
2018-06-11T14:34:37.752Z,29.40
2018-06-11T14:37:09.671Z,29.10
2018-06-11T14:39:41.607Z,28.90
2018-06-11T14:42:13.546Z,28.90
2018-06-11T14:44:45.501Z,29.00
2018-06-11T14:47:17.752Z,29.10
2018-06-11T14:52:22.514Z,29.20
2018-06-11T14:54:55.105Z,29.40
2018-06-11T14:57:28.225Z,29.30
2018-06-11T15:00:00.844Z,29.20
2018-06-11T15:02:33.047Z,29.10
2018-06-11T15:05:05.011Z,28.90
2018-06-11T15:07:36.900Z,28.90
2018-06-11T15:10:11.188Z,28.70
2018-06-11T15:12:43.156Z,28.40
2018-06-11T15:15:17.371Z,28.30
2018-06-11T15:17:49.384Z,28.20
2018-06-11T15:25:23.978Z,28.20
2018-06-11T15:27:56.073Z,28.20
2018-06-11T15:30:28.099Z,28.10
2018-06-11T15:33:01.085Z,28.20
2018-06-11T15:35:33.105Z,28.10
2018-06-11T15:38:05.143Z,28.10
2018-06-11T15:40:37.060Z,28.20
2018-06-11T15:45:40.566Z,28.30
2018-06-11T15:48:12.632Z,28.30
2018-06-11T15:53:27.554Z,28.30
2018-06-11T15:55:59.958Z,28.30
2018-06-11T15:58:36.090Z,28.10
2018-06-11T16:01:08.600Z,28.10
2018-06-11T16:03:41.635Z,28.10
2018-06-11T16:06:13.660Z,28.10
2018-06-11T16:08:45.680Z,28.20
2018-06-11T16:11:17.642Z,28.20
2018-06-11T16:13:49.694Z,28.30
2018-06-11T16:16:21.593Z,28.30
2018-06-11T16:18:53.630Z,28.30
2018-06-11T16:21:26.169Z,28.30
2018-06-11T16:23:58.691Z,28.40
2018-06-11T16:26:30.537Z,28.30
2018-06-11T16:31:34.417Z,28.10
2018-06-11T16:34:06.484Z,28.00
2018-06-11T16:37:02.178Z,27.90
2018-06-11T16:50:38.821Z,27.80
2018-06-11T16:53:10.762Z,27.80
2018-06-11T16:58:13.769Z,27.70
2018-06-11T17:00:45.498Z,27.70
2018-06-11T17:03:18.614Z,27.60
2018-06-11T17:05:51.088Z,27.60
2018-06-11T17:08:23.046Z,27.50
2018-06-11T17:21:33.671Z,27.30
2018-06-11T17:27:29.528Z,27.20
2018-06-11T17:32:33.129Z,27.00
2018-06-11T17:35:05.364Z,27.00
2018-06-11T17:37:37.287Z,27.00
2018-06-11T17:45:12.379Z,26.90
2018-06-11T17:47:44.518Z,26.90
2018-06-11T17:52:48.106Z,26.80
2018-06-11T17:55:19.935Z,26.70
2018-06-11T17:57:52.446Z,26.50
2018-06-11T18:08:00.245Z,26.50
2018-06-11T18:10:32.050Z,26.50
2018-06-11T18:13:04.366Z,26.50
2018-06-11T18:15:36.312Z,26.40
2018-06-11T18:23:11.359Z,26.30
2018-06-11T18:25:43.324Z,26.10
2018-06-11T18:28:15.937Z,26.00
2018-06-11T18:30:48.058Z,26.00
2018-06-11T18:33:19.900Z,25.90
2018-06-11T18:35:51.750Z,25.80
2018-06-11T18:38:23.692Z,25.80
2018-06-11T18:40:55.614Z,25.70
2018-06-11T18:43:27.490Z,25.70
2018-06-11T18:45:59.795Z,25.60
2018-06-11T18:48:31.778Z,25.50
2018-06-11T18:51:03.967Z,25.50
2018-06-11T18:53:35.938Z,25.40
2018-06-11T18:56:08.257Z,25.40
2018-06-11T19:01:12.224Z,25.30
2018-06-11T19:03:44.358Z,25.30
2018-06-11T19:06:16.311Z,25.20
2018-06-11T19:08:48.113Z,25.20
2018-06-11T19:11:19.838Z,25.20
2018-06-11T19:13:52.394Z,25.20
2018-06-11T19:16:24.419Z,25.10
2018-06-11T19:18:56.313Z,25.10
2018-06-11T19:23:59.660Z,24.90
2018-06-11T19:29:03.317Z,24.70
2018-06-11T19:31:35.391Z,24.60
2018-06-11T19:34:07.364Z,24.50
2018-06-11T19:36:39.192Z,24.40
2018-06-11T19:39:11.188Z,24.30
2018-06-11T19:41:43.136Z,24.20
2018-06-11T19:44:14.937Z,24.10
2018-06-11T19:46:46.930Z,24.00
2018-06-11T19:49:18.824Z,23.90
2018-06-11T19:51:50.981Z,23.90
2018-06-11T19:54:22.840Z,23.80
2018-06-11T19:56:54.864Z,23.80
2018-06-11T19:59:27.087Z,23.70
2018-06-11T20:04:31.833Z,23.60
2018-06-11T20:07:04.061Z,23.50
2018-06-11T20:09:36.910Z,23.50
2018-06-11T20:12:09.125Z,23.50
2018-06-11T20:14:41.360Z,23.40
2018-06-11T20:17:13.787Z,23.30
2018-06-11T20:19:45.999Z,23.20
2018-06-11T20:22:18.075Z,23.10
2018-06-11T20:24:50.591Z,23.00
2018-06-11T20:27:22.643Z,23.00
2018-06-11T20:29:55.639Z,23.10
2018-06-11T20:32:27.650Z,23.00
2018-06-11T20:34:59.854Z,23.00
2018-06-11T20:37:32.113Z,23.00
2018-06-11T20:45:07.438Z,22.90
2018-06-11T20:47:40.252Z,22.90
2018-06-11T20:50:12.614Z,22.80
2018-06-11T20:52:48.548Z,22.60
2018-06-11T20:55:23.615Z,22.60
2018-06-11T20:57:55.705Z,22.60
2018-06-11T21:00:27.955Z,22.50
2018-06-11T21:03:00.808Z,22.40
2018-06-11T21:05:32.982Z,22.20
2018-06-11T21:08:05.159Z,22.10
2018-06-11T21:10:39.565Z,22.20
2018-06-11T21:13:11.678Z,22.40
2018-06-11T21:20:46.952Z,22.40
2018-06-11T21:23:18.992Z,22.50
2018-06-11T21:25:51.023Z,22.40
2018-06-11T21:28:27.984Z,22.40
2018-06-11T21:31:02.847Z,22.30
2018-06-11T21:39:28.986Z,22.00
2018-06-11T21:42:01.495Z,21.90
2018-06-11T21:44:33.390Z,21.80
2018-06-11T21:47:21.374Z,21.80
2018-06-11T21:49:53.276Z,21.80
2018-06-11T21:52:25.083Z,21.80
2018-06-11T21:57:29.235Z,22.20
2018-06-11T22:00:01.485Z,22.10
2018-06-11T22:02:33.378Z,22.00
2018-06-11T22:05:06.401Z,21.80
2018-06-11T22:10:13.465Z,21.60
2018-06-11T22:12:47.148Z,21.50
2018-06-11T22:15:22.749Z,21.50
2018-06-11T22:17:54.754Z,21.40
2018-06-11T22:20:26.736Z,21.40
2018-06-11T22:22:58.845Z,21.40
2018-06-11T22:25:30.843Z,21.40
2018-06-11T22:28:04.144Z,21.40
2018-06-11T22:30:36.389Z,21.50
2018-06-11T22:35:40.183Z,21.60
2018-06-11T22:38:12.044Z,21.60
2018-06-11T22:40:44.124Z,21.60
2018-06-11T22:43:16.422Z,21.60
2018-06-11T22:45:48.686Z,21.60
2018-06-11T22:48:21.961Z,21.70
2018-06-11T22:50:55.612Z,21.70
2018-06-11T22:56:01.230Z,21.70
2018-06-11T22:58:33.267Z,21.60
2018-06-11T23:01:05.257Z,21.60
2018-06-11T23:03:37.531Z,21.50
2018-06-11T23:06:09.556Z,21.40
2018-06-11T23:08:41.479Z,21.30
2018-06-11T23:11:13.430Z,21.30
2018-06-11T23:13:45.669Z,21.20
2018-06-11T23:16:17.675Z,20.70
2018-06-11T23:18:49.867Z,20.30
2018-06-11T23:23:52.845Z,20.00
2018-06-11T23:26:24.718Z,20.10
2018-06-11T23:28:56.679Z,20.20
2018-06-11T23:31:28.521Z,20.30
2018-06-11T23:34:01.099Z,20.30
2018-06-11T23:36:33.107Z,20.40
2018-06-11T23:41:36.971Z,20.40
2018-06-11T23:44:08.830Z,20.40
2018-06-11T23:46:40.782Z,20.30
2018-06-11T23:49:12.978Z,20.30
2018-06-11T23:51:56.261Z,20.30
2018-06-11T23:54:28.827Z,20.20
2018-06-11T23:57:02.128Z,20.10
2018-06-11T23:59:34.721Z,20.10
